createdAt,value
2019-04-06T00:00:11.619Z,7.373047
2019-04-06T00:00:23.540Z,7.373047
2019-04-06T00:00:35.469Z,7.373047
2019-04-06T00:00:47.314Z,7.383118
2019-04-06T00:00:59.158Z,7.383118
2019-04-06T00:01:11.012Z,7.383118
2019-04-06T00:01:23.073Z,7.383118
2019-04-06T00:01:34.979Z,7.373047
2019-04-06T00:01:46.825Z,7.373047
2019-04-06T00:01:58.771Z,7.373047
2019-04-06T00:02:10.681Z,7.383118
2019-04-06T00:02:22.521Z,7.383118
2019-04-06T00:02:34.359Z,7.383118
2019-04-06T00:02:46.208Z,7.383118
2019-04-06T00:02:58.128Z,7.403259
2019-04-06T00:03:09.989Z,7.383118
2019-04-06T00:03:21.894Z,7.383118
2019-04-06T00:03:33.824Z,7.383118
2019-04-06T00:03:45.903Z,7.383118
2019-04-06T00:03:57.750Z,7.403259
2019-04-06T00:04:09.591Z,7.383118
2019-04-06T00:04:21.502Z,7.383118
2019-04-06T00:04:33.411Z,7.383118
2019-04-06T00:04:45.319Z,7.403259
2019-04-06T00:04:57.190Z,7.41333
2019-04-06T00:05:09.132Z,7.383118
2019-04-06T00:05:20.992Z,7.403259
2019-04-06T00:05:32.858Z,7.373047
2019-04-06T00:05:44.700Z,7.383118
2019-04-06T00:05:56.576Z,7.383118
2019-04-06T00:06:08.484Z,7.373047
2019-04-06T00:06:20.394Z,7.373047
2019-04-06T00:06:32.272Z,7.373047
2019-04-06T00:06:44.260Z,7.373047
2019-04-06T00:06:56.192Z,7.373047
2019-04-06T00:07:08.027Z,7.352905
2019-04-06T00:07:19.971Z,7.383118
2019-04-06T00:07:31.813Z,7.373047
2019-04-06T00:07:43.749Z,7.352905
2019-04-06T00:07:55.663Z,7.373047
2019-04-06T00:08:07.496Z,7.352905
2019-04-06T00:08:19.405Z,7.373047
2019-04-06T00:08:31.264Z,7.373047
2019-04-06T00:08:43.105Z,7.352905
2019-04-06T00:08:54.958Z,7.373047
2019-04-06T00:09:06.811Z,7.352905
2019-04-06T00:09:18.724Z,7.352905
2019-04-06T00:09:30.566Z,7.352905
2019-04-06T00:09:42.485Z,7.342834
2019-04-06T00:09:54.326Z,7.342834
2019-04-06T00:10:06.312Z,7.352905
2019-04-06T00:10:18.195Z,7.352905
2019-04-06T00:10:30.034Z,7.352905
2019-04-06T00:10:41.947Z,7.342834
2019-04-06T00:10:55.205Z,7.342834
2019-04-06T00:11:06.836Z,7.342834
2019-04-06T00:11:18.709Z,7.342834
2019-04-06T00:11:30.575Z,7.342834
2019-04-06T00:11:42.482Z,7.342834
2019-04-06T00:11:54.357Z,7.322693
2019-04-06T00:12:06.377Z,7.322693
2019-04-06T00:12:18.281Z,7.322693
2019-04-06T00:12:30.116Z,7.312622
2019-04-06T00:12:42.042Z,7.322693
2019-04-06T00:12:53.952Z,7.322693
2019-04-06T00:13:05.806Z,7.322693
2019-04-06T00:13:17.784Z,7.322693
2019-04-06T00:13:29.653Z,7.322693
2019-04-06T00:13:41.628Z,7.322693
2019-04-06T00:13:53.890Z,7.322693
2019-04-06T00:14:05.780Z,7.342834
2019-04-06T00:14:17.649Z,7.342834
2019-04-06T00:14:29.508Z,7.322693
2019-04-06T00:14:41.377Z,7.342834
2019-04-06T00:14:53.207Z,7.342834
2019-04-06T00:15:05.126Z,7.322693
2019-04-06T00:15:17.087Z,7.342834
2019-04-06T00:15:28.968Z,7.322693
2019-04-06T00:15:40.898Z,7.352905
2019-04-06T00:15:52.822Z,7.342834
2019-04-06T00:16:04.683Z,7.342834
2019-04-06T00:16:16.542Z,7.342834
2019-04-06T00:16:28.404Z,7.352905
2019-04-06T00:16:40.276Z,7.342834
2019-04-06T00:16:52.190Z,7.342834
2019-04-06T00:17:04.048Z,7.352905
2019-04-06T00:17:15.957Z,7.352905
2019-04-06T00:17:27.835Z,7.352905
2019-04-06T00:17:39.685Z,7.342834
2019-04-06T00:17:51.602Z,7.352905
2019-04-06T00:18:03.444Z,7.352905
2019-04-06T00:18:15.386Z,7.352905
2019-04-06T00:18:27.326Z,7.342834
2019-04-06T00:18:39.141Z,7.352905
2019-04-06T00:18:51.088Z,7.352905
2019-04-06T00:19:02.939Z,7.373047
2019-04-06T00:19:14.778Z,7.352905
2019-04-06T00:19:26.619Z,7.342834
2019-04-06T00:19:38.501Z,7.352905
2019-04-06T00:19:50.432Z,7.352905
2019-04-06T00:20:02.297Z,7.352905
2019-04-06T00:20:14.210Z,7.352905
2019-04-06T00:20:26.127Z,7.352905
2019-04-06T00:20:38.099Z,7.373047
2019-04-06T00:20:49.947Z,7.352905
2019-04-06T00:21:01.834Z,7.352905
2019-04-06T00:21:13.755Z,7.352905
2019-04-06T00:21:25.711Z,7.342834
2019-04-06T00:21:37.651Z,7.342834
2019-04-06T00:21:49.488Z,7.342834
2019-04-06T00:22:01.425Z,7.352905
2019-04-06T00:22:13.316Z,7.342834
2019-04-06T00:22:25.160Z,7.322693
2019-04-06T00:22:37.044Z,7.342834
2019-04-06T00:22:48.858Z,7.342834
2019-04-06T00:23:00.780Z,7.342834
2019-04-06T00:23:12.675Z,7.322693
2019-04-06T00:23:24.595Z,7.322693
2019-04-06T00:23:36.515Z,7.322693
2019-04-06T00:23:48.361Z,7.322693
2019-04-06T00:24:00.233Z,7.322693
2019-04-06T00:24:12.162Z,7.322693
2019-04-06T00:24:24.097Z,7.322693
2019-04-06T00:24:36.034Z,7.342834
2019-04-06T00:24:47.888Z,7.342834
2019-04-06T00:24:59.803Z,7.322693
2019-04-06T00:25:11.701Z,7.352905
2019-04-06T00:25:23.627Z,7.352905
2019-04-06T00:25:44.072Z,7.342834
2019-04-06T00:25:48.316Z,7.342834
2019-04-06T00:26:00.182Z,7.352905
2019-04-06T00:26:12.037Z,7.352905
2019-04-06T00:26:23.920Z,7.373047
2019-04-06T00:26:35.859Z,7.352905
2019-04-06T00:26:47.684Z,7.373047
2019-04-06T00:26:59.620Z,7.373047
2019-04-06T00:27:12.502Z,7.373047
2019-04-06T00:27:25.438Z,7.373047
2019-04-06T00:27:37.305Z,7.373047
2019-04-06T00:27:49.150Z,7.383118
2019-04-06T00:28:01.085Z,7.403259
2019-04-06T00:28:12.945Z,7.383118
2019-04-06T00:28:24.908Z,7.403259
2019-04-06T00:28:36.893Z,7.403259
2019-04-06T00:28:48.749Z,7.403259
2019-04-06T00:29:00.581Z,7.383118
2019-04-06T00:29:12.454Z,7.383118
2019-04-06T00:29:24.298Z,7.403259
2019-04-06T00:29:36.229Z,7.403259
2019-04-06T00:29:48.083Z,7.383118
2019-04-06T00:30:00.016Z,7.383118
2019-04-06T00:30:12.034Z,7.383118
2019-04-06T00:30:23.869Z,7.373047
2019-04-06T00:30:35.714Z,7.383118
2019-04-06T00:30:47.563Z,7.383118
2019-04-06T00:30:59.448Z,7.373047
2019-04-06T00:31:11.444Z,7.352905
2019-04-06T00:31:23.276Z,7.352905
2019-04-06T00:31:35.177Z,7.352905
2019-04-06T00:31:47.072Z,7.352905
2019-04-06T00:31:58.914Z,7.342834
2019-04-06T00:32:10.762Z,7.322693
2019-04-06T00:32:22.610Z,7.322693
2019-04-06T00:32:34.522Z,7.29248
2019-04-06T00:32:46.445Z,7.272339
2019-04-06T00:32:58.307Z,7.262268
2019-04-06T00:33:10.214Z,7.232056
2019-04-06T00:33:22.396Z,7.232056
2019-04-06T00:33:34.278Z,7.232056
2019-04-06T00:33:46.125Z,7.221985
2019-04-06T00:33:58.160Z,7.201843
2019-04-06T00:34:10.006Z,7.201843
2019-04-06T00:34:21.937Z,7.171631
2019-04-06T00:34:33.834Z,7.171631
2019-04-06T00:34:45.681Z,7.16156
2019-04-06T00:34:57.602Z,7.131348
2019-04-06T00:35:09.535Z,7.151489
2019-04-06T00:35:21.370Z,7.121277
2019-04-06T00:35:33.318Z,7.091064
2019-04-06T00:35:45.179Z,7.091064
2019-04-06T00:35:57.112Z,7.091064
2019-04-06T00:36:08.953Z,7.080994
2019-04-06T00:36:20.808Z,7.070923
2019-04-06T00:36:32.790Z,7.050781
2019-04-06T00:36:44.717Z,7.050781
2019-04-06T00:36:56.566Z,7.04071
2019-04-06T00:37:08.554Z,7.020569
2019-04-06T00:37:20.492Z,7.020569
2019-04-06T00:37:32.406Z,7.010498
2019-04-06T00:37:44.246Z,7.010498
2019-04-06T00:37:56.159Z,6.980286
2019-04-06T00:38:07.994Z,6.970215
2019-04-06T00:38:19.916Z,6.970215
2019-04-06T00:38:33.740Z,6.950073
2019-04-06T00:38:43.770Z,6.970215
2019-04-06T00:38:55.687Z,6.940002
2019-04-06T00:39:07.575Z,6.940002
2019-04-06T00:39:19.417Z,6.90979
2019-04-06T00:39:31.274Z,6.899719
2019-04-06T00:39:43.120Z,6.899719
2019-04-06T00:39:55.065Z,6.899719
2019-04-06T00:40:06.905Z,6.889648
2019-04-06T00:40:18.847Z,6.889648
2019-04-06T00:40:30.753Z,6.859436
2019-04-06T00:40:42.671Z,6.859436
2019-04-06T00:40:54.498Z,6.859436
2019-04-06T00:41:06.343Z,6.859436
2019-04-06T00:41:18.218Z,6.859436
2019-04-06T00:41:30.162Z,6.839294
2019-04-06T00:41:42.001Z,6.839294
2019-04-06T00:41:53.912Z,6.829224
2019-04-06T00:42:05.764Z,6.809082
2019-04-06T00:42:17.796Z,6.799011
2019-04-06T00:42:30.621Z,6.799011
2019-04-06T00:42:42.595Z,6.799011
2019-04-06T00:42:54.420Z,6.799011
2019-04-06T00:43:06.286Z,6.78894
2019-04-06T00:43:18.230Z,6.768799
2019-04-06T00:43:30.105Z,6.78894
2019-04-06T00:43:41.959Z,6.768799
2019-04-06T00:43:53.925Z,6.768799
2019-04-06T00:44:05.771Z,6.768799
2019-04-06T00:44:17.714Z,6.78894
2019-04-06T00:44:29.587Z,6.768799
2019-04-06T00:44:41.498Z,6.768799
2019-04-06T00:44:53.466Z,6.758728
2019-04-06T00:45:05.267Z,6.768799
2019-04-06T00:45:17.111Z,6.758728
2019-04-06T00:45:28.969Z,6.728516
2019-04-06T00:45:40.826Z,6.768799
2019-04-06T00:45:52.765Z,6.728516
2019-04-06T00:46:04.585Z,6.718445
2019-04-06T00:46:16.507Z,6.728516
2019-04-06T00:46:28.528Z,6.718445
2019-04-06T00:46:40.401Z,6.718445
2019-04-06T00:46:52.184Z,6.718445
2019-04-06T00:47:04.042Z,6.718445
2019-04-06T00:47:15.938Z,6.708374
2019-04-06T00:47:27.874Z,6.708374
2019-04-06T00:47:39.712Z,6.718445
2019-04-06T00:47:51.644Z,6.708374
2019-04-06T00:48:03.526Z,6.708374
2019-04-06T00:48:15.393Z,6.708374
2019-04-06T00:48:27.251Z,6.718445
2019-04-06T00:48:39.104Z,6.718445
2019-04-06T00:48:51.017Z,6.708374
2019-04-06T00:49:02.901Z,6.718445
2019-04-06T00:49:14.787Z,6.708374
2019-04-06T00:49:26.713Z,6.718445
2019-04-06T00:49:38.641Z,6.718445
2019-04-06T00:49:50.468Z,6.708374
2019-04-06T00:50:02.331Z,6.718445
2019-04-06T00:50:14.232Z,6.758728
2019-04-06T00:50:26.165Z,6.728516
2019-04-06T00:50:38.062Z,6.728516
2019-04-06T00:50:49.902Z,6.718445
2019-04-06T00:51:01.818Z,6.708374
2019-04-06T00:51:13.726Z,6.688232
2019-04-06T00:51:25.577Z,6.688232
2019-04-06T00:51:37.416Z,6.688232
2019-04-06T00:51:49.282Z,6.678162
2019-04-06T00:52:01.215Z,6.678162
2019-04-06T00:52:13.057Z,6.678162
2019-04-06T00:52:25.006Z,6.65802
2019-04-06T00:52:36.968Z,6.678162
2019-04-06T00:52:48.844Z,6.65802
2019-04-06T00:53:00.686Z,6.627808
2019-04-06T00:53:12.526Z,6.627808
2019-04-06T00:53:24.383Z,6.617737
2019-04-06T00:53:36.270Z,6.617737
2019-04-06T00:53:48.110Z,6.617737
2019-04-06T00:54:00.081Z,6.607666
2019-04-06T00:54:12.305Z,6.587524
2019-04-06T00:54:24.438Z,6.607666
2019-04-06T00:54:36.170Z,6.607666
2019-04-06T00:54:48.019Z,6.587524
2019-04-06T00:54:59.870Z,6.587524
2019-04-06T00:55:11.716Z,6.587524
2019-04-06T00:55:23.706Z,6.587524
2019-04-06T00:55:35.499Z,6.577454
2019-04-06T00:55:55.291Z,6.587524
2019-04-06T00:56:00.355Z,6.577454
2019-04-06T00:56:12.424Z,6.577454
2019-04-06T00:56:24.409Z,6.577454
2019-04-06T00:56:36.214Z,6.577454
2019-04-06T00:56:48.128Z,6.587524
2019-04-06T00:56:59.925Z,6.577454
2019-04-06T00:57:11.827Z,6.577454
2019-04-06T00:57:23.793Z,6.587524
2019-04-06T00:57:35.652Z,6.557312
2019-04-06T00:57:47.626Z,6.557312
2019-04-06T00:57:59.532Z,6.557312
2019-04-06T00:58:11.393Z,6.53717
2019-04-06T00:58:23.249Z,6.557312
2019-04-06T00:58:35.100Z,6.53717
2019-04-06T00:58:46.998Z,6.53717
2019-04-06T00:58:59.014Z,6.53717
2019-04-06T00:59:10.866Z,6.53717
2019-04-06T00:59:22.813Z,6.557312
2019-04-06T00:59:34.848Z,6.557312
2019-04-06T00:59:46.697Z,6.557312
2019-04-06T00:59:58.542Z,6.557312
2019-04-06T01:00:10.591Z,6.53717
2019-04-06T01:00:22.437Z,6.53717
2019-04-06T01:00:34.525Z,6.557312
2019-04-06T01:00:46.389Z,6.557312
2019-04-06T01:00:58.236Z,6.557312
2019-04-06T01:01:10.116Z,6.557312
2019-04-06T01:01:21.984Z,6.557312
2019-04-06T01:01:33.841Z,6.577454
2019-04-06T01:01:45.869Z,6.557312
2019-04-06T01:01:57.824Z,6.577454
2019-04-06T01:02:09.876Z,6.577454
2019-04-06T01:02:21.804Z,6.577454
2019-04-06T01:02:33.575Z,6.577454
2019-04-06T01:02:45.664Z,6.577454
2019-04-06T01:02:57.503Z,6.587524
2019-04-06T01:03:09.438Z,6.577454
2019-04-06T01:03:21.461Z,6.577454
2019-04-06T01:03:33.279Z,6.577454
2019-04-06T01:03:45.250Z,6.577454
2019-04-06T01:03:57.156Z,6.577454
2019-04-06T01:04:08.990Z,6.557312
2019-04-06T01:04:21.015Z,6.53717
2019-04-06T01:04:32.803Z,6.53717
2019-04-06T01:04:44.931Z,6.53717
2019-04-06T01:04:56.788Z,6.5271
2019-04-06T01:05:08.628Z,6.5271
2019-04-06T01:05:21.407Z,6.5271
2019-04-06T01:05:33.367Z,6.506958
2019-04-06T01:05:45.298Z,6.506958
2019-04-06T01:05:57.151Z,6.496887
2019-04-06T01:06:08.995Z,6.476746
2019-04-06T01:06:20.850Z,6.476746
2019-04-06T01:06:32.744Z,6.476746
2019-04-06T01:06:44.676Z,6.466675
2019-04-06T01:06:56.517Z,6.466675
2019-04-06T01:07:08.501Z,6.466675
2019-04-06T01:07:22.945Z,6.466675
2019-04-06T01:07:32.365Z,6.466675
2019-04-06T01:07:44.189Z,6.466675
2019-04-06T01:07:56.084Z,6.456604
2019-04-06T01:08:07.943Z,6.456604
2019-04-06T01:08:19.834Z,6.456604
2019-04-06T01:08:31.665Z,6.456604
2019-04-06T01:08:43.617Z,6.436462
2019-04-06T01:08:55.496Z,6.436462
2019-04-06T01:09:07.345Z,6.436462
2019-04-06T01:09:19.254Z,6.436462
2019-04-06T01:09:31.096Z,6.40625
2019-04-06T01:09:43.011Z,6.40625
2019-04-06T01:09:54.973Z,6.426392
2019-04-06T01:10:06.821Z,6.426392
2019-04-06T01:10:18.795Z,6.40625
2019-04-06T01:10:30.777Z,6.40625
2019-04-06T01:10:42.621Z,6.396179
2019-04-06T01:10:54.471Z,6.396179
2019-04-06T01:11:06.399Z,6.40625
2019-04-06T01:11:19.254Z,6.396179
2019-04-06T01:11:31.113Z,6.376038
2019-04-06T01:11:43.038Z,6.376038
2019-04-06T01:11:54.896Z,6.376038
2019-04-06T01:12:06.863Z,6.355896
2019-04-06T01:12:18.919Z,6.345825
2019-04-06T01:12:30.783Z,6.345825
2019-04-06T01:12:42.632Z,6.325684
2019-04-06T01:12:54.487Z,6.325684
2019-04-06T01:13:06.334Z,6.325684
2019-04-06T01:13:18.285Z,6.325684
2019-04-06T01:13:30.214Z,6.315613
2019-04-06T01:13:42.071Z,6.315613
2019-04-06T01:13:53.983Z,6.2854
2019-04-06T01:14:05.947Z,6.2854
2019-04-06T01:14:17.802Z,6.27533
2019-04-06T01:14:29.668Z,6.27533
2019-04-06T01:14:41.625Z,6.27533
2019-04-06T01:14:53.532Z,6.255188
2019-04-06T01:15:05.516Z,6.255188
2019-04-06T01:15:17.519Z,6.245117
2019-04-06T01:15:29.375Z,6.245117
2019-04-06T01:15:41.330Z,6.245117
2019-04-06T01:15:53.193Z,6.245117
2019-04-06T01:16:05.066Z,6.224976
2019-04-06T01:16:16.996Z,6.224976
2019-04-06T01:16:28.826Z,6.214905
2019-04-06T01:16:40.872Z,6.194763
2019-04-06T01:16:52.748Z,6.184692
2019-04-06T01:17:04.573Z,6.184692
2019-04-06T01:17:16.675Z,6.194763
2019-04-06T01:17:28.663Z,6.184692
2019-04-06T01:17:40.555Z,6.184692
2019-04-06T01:17:52.432Z,6.184692
2019-04-06T01:18:04.401Z,6.164551
2019-04-06T01:18:16.269Z,6.144409
2019-04-06T01:18:28.121Z,6.144409
2019-04-06T01:18:40.082Z,6.144409
2019-04-06T01:18:51.931Z,6.134338
2019-04-06T01:19:03.873Z,6.134338
2019-04-06T01:19:15.769Z,6.114197
2019-04-06T01:19:27.646Z,6.104126
2019-04-06T01:19:39.611Z,6.094055
2019-04-06T01:19:51.651Z,6.094055
2019-04-06T01:20:03.488Z,6.104126
2019-04-06T01:20:15.337Z,6.094055
2019-04-06T01:20:27.177Z,6.094055
2019-04-06T01:20:39.081Z,6.073914
2019-04-06T01:20:51.168Z,6.094055
2019-04-06T01:21:03.027Z,6.094055
2019-04-06T01:21:14.887Z,6.073914
2019-04-06T01:21:26.819Z,6.073914
2019-04-06T01:21:38.661Z,6.063843
2019-04-06T01:21:51.600Z,6.073914
2019-04-06T01:22:03.443Z,6.063843
2019-04-06T01:22:15.387Z,6.043701
2019-04-06T01:22:27.247Z,6.03363
2019-04-06T01:22:39.214Z,6.043701
2019-04-06T01:22:51.121Z,6.013489
2019-04-06T01:23:02.968Z,6.03363
2019-04-06T01:23:14.972Z,6.013489
2019-04-06T01:23:26.820Z,6.003418
2019-04-06T01:23:38.677Z,5.983276
2019-04-06T01:23:50.528Z,5.963135
2019-04-06T01:24:02.357Z,5.963135
2019-04-06T01:24:14.338Z,5.953064
2019-04-06T01:24:26.226Z,5.953064
2019-04-06T01:24:38.093Z,5.932922
2019-04-06T01:24:50.126Z,5.922852
2019-04-06T01:25:02.162Z,5.912781
2019-04-06T01:25:14.025Z,5.892639
2019-04-06T01:25:26.008Z,5.892639
2019-04-06T01:25:38.048Z,5.892639
2019-04-06T01:25:49.914Z,5.892639
2019-04-06T01:26:07.269Z,5.882568
2019-04-06T01:26:14.637Z,5.862427
2019-04-06T01:26:26.586Z,5.882568
2019-04-06T01:26:38.455Z,5.862427
2019-04-06T01:26:50.361Z,5.862427
2019-04-06T01:27:02.405Z,5.882568
2019-04-06T01:27:14.257Z,5.862427
2019-04-06T01:27:26.092Z,5.862427
2019-04-06T01:27:38.162Z,5.852356
2019-04-06T01:27:49.986Z,5.862427
2019-04-06T01:28:01.965Z,5.852356
2019-04-06T01:28:13.878Z,5.852356
2019-04-06T01:28:25.726Z,5.832214
2019-04-06T01:28:37.658Z,5.832214
2019-04-06T01:28:49.680Z,5.832214
2019-04-06T01:29:01.526Z,5.822144
2019-04-06T01:29:14.476Z,5.822144
2019-04-06T01:29:26.332Z,5.822144
2019-04-06T01:29:38.390Z,5.822144
2019-04-06T01:29:50.246Z,5.78186
2019-04-06T01:30:02.270Z,5.812073
2019-04-06T01:30:14.098Z,5.812073
2019-04-06T01:30:26.082Z,5.77179
2019-04-06T01:30:37.992Z,5.78186
2019-04-06T01:30:49.916Z,5.78186
2019-04-06T01:31:01.806Z,5.812073
2019-04-06T01:31:13.690Z,5.78186
2019-04-06T01:31:25.617Z,5.77179
2019-04-06T01:31:37.487Z,5.78186
2019-04-06T01:31:49.335Z,5.77179
2019-04-06T01:32:01.194Z,5.78186
2019-04-06T01:32:13.086Z,5.77179
2019-04-06T01:32:25.013Z,5.77179
2019-04-06T01:32:36.864Z,5.78186
2019-04-06T01:32:48.809Z,5.77179
2019-04-06T01:33:00.832Z,5.77179
2019-04-06T01:33:12.684Z,5.78186
2019-04-06T01:33:24.586Z,5.751648
2019-04-06T01:33:36.415Z,5.77179
2019-04-06T01:33:48.265Z,5.751648
2019-04-06T01:34:00.188Z,5.77179
2019-04-06T01:34:12.066Z,5.741577
2019-04-06T01:34:23.986Z,5.751648
2019-04-06T01:34:35.979Z,5.751648
2019-04-06T01:34:47.895Z,5.741577
2019-04-06T01:34:59.705Z,5.731506
2019-04-06T01:35:11.638Z,5.741577
2019-04-06T01:35:23.520Z,5.741577
2019-04-06T01:35:35.473Z,5.731506
2019-04-06T01:35:47.437Z,5.731506
2019-04-06T01:35:59.287Z,5.731506
2019-04-06T01:36:11.217Z,5.731506
2019-04-06T01:36:23.130Z,5.731506
2019-04-06T01:36:34.953Z,5.731506
2019-04-06T01:36:46.801Z,5.711365
2019-04-06T01:36:58.651Z,5.711365
2019-04-06T01:37:10.588Z,5.711365
2019-04-06T01:37:22.504Z,5.731506
2019-04-06T01:37:34.349Z,5.711365
2019-04-06T01:37:46.262Z,5.711365
2019-04-06T01:37:58.362Z,5.731506
2019-04-06T01:38:10.215Z,5.711365
2019-04-06T01:38:22.060Z,5.711365
2019-04-06T01:38:34.894Z,5.701294
2019-04-06T01:38:46.732Z,5.701294
2019-04-06T01:38:58.651Z,5.701294
2019-04-06T01:39:10.625Z,5.701294
2019-04-06T01:39:22.466Z,5.701294
2019-04-06T01:39:34.364Z,5.701294
2019-04-06T01:39:46.205Z,5.681152
2019-04-06T01:39:58.251Z,5.681152
2019-04-06T01:40:10.058Z,5.671082
2019-04-06T01:40:21.902Z,5.671082
2019-04-06T01:40:33.824Z,5.671082
2019-04-06T01:40:45.744Z,5.640869
2019-04-06T01:40:57.598Z,5.640869
2019-04-06T01:41:09.553Z,5.640869
2019-04-06T01:41:21.432Z,5.640869
2019-04-06T01:41:33.344Z,5.640869
2019-04-06T01:41:45.187Z,5.640869
2019-04-06T01:41:57.033Z,5.630798
2019-04-06T01:42:09.018Z,5.640869
2019-04-06T01:42:22.050Z,5.630798
2019-04-06T01:42:33.985Z,5.640869
2019-04-06T01:42:46.026Z,5.600586
2019-04-06T01:42:57.910Z,5.630798
2019-04-06T01:43:09.790Z,5.600586
2019-04-06T01:43:21.743Z,5.600586
2019-04-06T01:43:33.840Z,5.600586
2019-04-06T01:43:45.687Z,5.600586
2019-04-06T01:43:57.534Z,5.590515
2019-04-06T01:44:09.472Z,5.570374
2019-04-06T01:44:21.354Z,5.560303
2019-04-06T01:44:33.310Z,5.550232
2019-04-06T01:44:45.338Z,5.53009
2019-04-06T01:44:57.174Z,5.53009
2019-04-06T01:45:09.097Z,5.52002
2019-04-06T01:45:20.936Z,5.499878
2019-04-06T01:45:32.942Z,5.499878
2019-04-06T01:45:44.659Z,5.499878
2019-04-06T01:45:56.578Z,5.499878
2019-04-06T01:46:08.585Z,5.489807
2019-04-06T01:46:20.440Z,5.479736
2019-04-06T01:46:32.278Z,5.499878
2019-04-06T01:46:44.470Z,5.489807
2019-04-06T01:46:56.387Z,5.479736
2019-04-06T01:47:08.251Z,5.489807
2019-04-06T01:47:20.328Z,5.489807
2019-04-06T01:47:32.288Z,5.499878
2019-04-06T01:47:44.229Z,5.489807
2019-04-06T01:47:56.077Z,5.479736
2019-04-06T01:48:07.920Z,5.479736
2019-04-06T01:48:19.765Z,5.479736
2019-04-06T01:48:31.676Z,5.489807
2019-04-06T01:48:43.627Z,5.479736
2019-04-06T01:48:55.473Z,5.459595
2019-04-06T01:49:07.400Z,5.459595
2019-04-06T01:49:19.263Z,5.459595
2019-04-06T01:49:31.101Z,5.479736
2019-04-06T01:49:43.021Z,5.479736
2019-04-06T01:49:54.862Z,5.479736
2019-04-06T01:50:06.784Z,5.479736
2019-04-06T01:50:18.731Z,5.459595
2019-04-06T01:50:30.584Z,5.479736
2019-04-06T01:50:42.561Z,5.459595
2019-04-06T01:50:54.710Z,5.459595
2019-04-06T01:51:06.587Z,5.459595
2019-04-06T01:51:18.446Z,5.459595
2019-04-06T01:51:30.350Z,5.459595
2019-04-06T01:51:43.175Z,5.479736
2019-04-06T01:51:55.036Z,5.459595
2019-04-06T01:52:06.978Z,5.459595
2019-04-06T01:52:18.890Z,5.459595
2019-04-06T01:52:30.702Z,5.459595
2019-04-06T01:52:42.659Z,5.459595
2019-04-06T01:52:54.780Z,5.459595
2019-04-06T01:53:06.624Z,5.459595
2019-04-06T01:53:18.468Z,5.449524
2019-04-06T01:53:30.559Z,5.429382
2019-04-06T01:53:42.395Z,5.449524
2019-04-06T01:53:54.451Z,5.449524
2019-04-06T01:54:06.323Z,5.429382
2019-04-06T01:54:18.137Z,5.449524
2019-04-06T01:54:30.119Z,5.449524
2019-04-06T01:54:41.946Z,5.409241
2019-04-06T01:54:53.778Z,5.429382
2019-04-06T01:55:05.769Z,5.429382
2019-04-06T01:55:17.643Z,5.429382
2019-04-06T01:55:29.593Z,5.429382
2019-04-06T01:55:41.544Z,5.429382
2019-04-06T01:55:53.406Z,5.449524
2019-04-06T01:56:05.296Z,5.449524
2019-04-06T01:56:19.081Z,5.449524
2019-04-06T01:56:30.205Z,5.459595
2019-04-06T01:56:42.062Z,5.449524
2019-04-06T01:56:53.912Z,5.459595
2019-04-06T01:57:05.951Z,5.479736
2019-04-06T01:57:17.794Z,5.449524
2019-04-06T01:57:29.771Z,5.449524
2019-04-06T01:57:41.737Z,5.459595
2019-04-06T01:57:53.579Z,5.449524
2019-04-06T01:58:05.500Z,5.449524
2019-04-06T01:58:17.513Z,5.449524
2019-04-06T01:58:29.350Z,5.459595
2019-04-06T01:58:41.249Z,5.479736
2019-04-06T01:58:53.182Z,5.459595
2019-04-06T01:59:05.094Z,5.459595
2019-04-06T01:59:16.943Z,5.459595
2019-04-06T01:59:28.786Z,5.479736
2019-04-06T01:59:40.716Z,5.489807
2019-04-06T01:59:52.630Z,5.479736
2019-04-06T02:00:04.479Z,5.489807
2019-04-06T02:00:16.430Z,5.489807
2019-04-06T02:00:28.409Z,5.489807
2019-04-06T02:00:40.282Z,5.499878
2019-04-06T02:00:52.114Z,5.52002
2019-04-06T02:01:04.111Z,5.52002
2019-04-06T02:01:15.960Z,5.52002
2019-04-06T02:01:28.111Z,5.53009
2019-04-06T02:01:39.900Z,5.550232
2019-04-06T02:01:51.829Z,5.560303
2019-04-06T02:02:03.680Z,5.570374
2019-04-06T02:02:15.633Z,5.570374
2019-04-06T02:02:27.513Z,5.590515
2019-04-06T02:02:39.403Z,5.600586
2019-04-06T02:02:51.368Z,5.630798
2019-04-06T02:03:03.210Z,5.630798
2019-04-06T02:03:16.071Z,5.661011
2019-04-06T02:03:28.115Z,5.661011
2019-04-06T02:03:39.866Z,5.671082
2019-04-06T02:03:51.759Z,5.681152
2019-04-06T02:04:03.720Z,5.681152
2019-04-06T02:04:15.692Z,5.701294
2019-04-06T02:04:27.509Z,5.711365
2019-04-06T02:04:39.452Z,5.711365
2019-04-06T02:04:51.365Z,5.731506
2019-04-06T02:05:04.192Z,5.731506
2019-04-06T02:05:16.033Z,5.741577
2019-04-06T02:05:27.950Z,5.741577
2019-04-06T02:05:39.796Z,5.741577
2019-04-06T02:05:51.712Z,5.741577
2019-04-06T02:06:03.583Z,5.751648
2019-04-06T02:06:15.558Z,5.751648
2019-04-06T02:06:27.274Z,5.751648
2019-04-06T02:06:39.129Z,5.751648
2019-04-06T02:06:51.145Z,5.751648
2019-04-06T02:07:03.139Z,5.751648
2019-04-06T02:07:15.008Z,5.77179
2019-04-06T02:07:26.914Z,5.751648
2019-04-06T02:07:38.848Z,5.77179
2019-04-06T02:07:50.691Z,5.77179
2019-04-06T02:08:02.553Z,5.77179
2019-04-06T02:08:14.393Z,5.77179
2019-04-06T02:08:26.301Z,5.78186
2019-04-06T02:08:38.245Z,5.77179
2019-04-06T02:08:50.088Z,5.77179
2019-04-06T02:09:02.089Z,5.77179
2019-04-06T02:09:14.040Z,5.78186
2019-04-06T02:09:25.888Z,5.78186
2019-04-06T02:09:37.741Z,5.77179
2019-04-06T02:09:49.841Z,5.77179
2019-04-06T02:10:01.684Z,5.78186
2019-04-06T02:10:13.689Z,5.812073
2019-04-06T02:10:25.639Z,5.78186
2019-04-06T02:10:37.506Z,5.822144
2019-04-06T02:10:49.454Z,5.812073
2019-04-06T02:11:01.423Z,5.812073
2019-04-06T02:11:13.279Z,5.822144
2019-04-06T02:11:25.192Z,5.822144
2019-04-06T02:11:37.266Z,5.832214
2019-04-06T02:11:49.053Z,5.832214
2019-04-06T02:12:00.900Z,5.852356
2019-04-06T02:12:12.749Z,5.852356
2019-04-06T02:12:24.636Z,5.852356
2019-04-06T02:12:36.604Z,5.852356
2019-04-06T02:12:48.446Z,5.832214
2019-04-06T02:13:00.362Z,5.852356
2019-04-06T02:13:12.362Z,5.832214
2019-04-06T02:13:24.229Z,5.832214
2019-04-06T02:13:36.073Z,5.822144
2019-04-06T02:13:48.024Z,5.822144
2019-04-06T02:13:59.866Z,5.822144
2019-04-06T02:14:11.879Z,5.822144
2019-04-06T02:14:23.932Z,5.812073
2019-04-06T02:14:35.858Z,5.812073
2019-04-06T02:14:47.698Z,5.77179
2019-04-06T02:14:59.616Z,5.78186
2019-04-06T02:15:11.491Z,5.78186
2019-04-06T02:15:23.314Z,5.78186
2019-04-06T02:15:35.185Z,5.77179
2019-04-06T02:15:47.036Z,5.751648
2019-04-06T02:15:59.000Z,5.751648
2019-04-06T02:16:10.835Z,5.751648
2019-04-06T02:16:22.791Z,5.751648
2019-04-06T02:16:34.774Z,5.751648
2019-04-06T02:16:46.638Z,5.751648
2019-04-06T02:16:58.451Z,5.751648
2019-04-06T02:17:10.467Z,5.751648
2019-04-06T02:17:22.324Z,5.751648
2019-04-06T02:17:34.346Z,5.77179
2019-04-06T02:17:46.279Z,5.751648
2019-04-06T02:17:58.127Z,5.77179
2019-04-06T02:18:10.033Z,5.751648
2019-04-06T02:18:21.927Z,5.78186
2019-04-06T02:18:33.778Z,5.77179
2019-04-06T02:18:45.839Z,5.78186
2019-04-06T02:18:57.713Z,5.78186
2019-04-06T02:19:09.759Z,5.78186
2019-04-06T02:19:21.522Z,5.78186
2019-04-06T02:19:33.398Z,5.78186
2019-04-06T02:19:45.279Z,5.812073
2019-04-06T02:19:57.327Z,5.812073
2019-04-06T02:20:09.092Z,5.812073
2019-04-06T02:20:21.030Z,5.822144
2019-04-06T02:20:32.990Z,5.812073
2019-04-06T02:20:44.882Z,5.822144